Harrington Cda Cs, Prince Edward Island

6:47 AM ADT on August 28, 2015 (GMT -0300)
Winsloe Road | | Change Station
CLOSE
Current Station
Personal Weather Station
Location: Winsloe South, PRINCE EDWARD ISLAND
Elevation: 200 ft
Nearby Weather Stations

Elev 200 ft 46.30 °N, 63.18 °W | Updated 2 minutes ago

Partly Cloudy
Partly Cloudy
58.2 °F
Feels Like 58.2 °F
N
0.0
Wind Variable Wind from NNE
Gusts 0.0 mph

Today is forecast to be nearly the same temperature as yesterday.

Today
High -- | Low -- °F
--% Chance of Precip.
Yesterday
High -- | Low -- °F
Precip. -- in
6:27 AM 7:59 PM
Waxing Gibbous, 97% visible
Pressure 29.88 in
Visibility 15.0 miles
Clouds Few 3000 ft
Dew Point 57 °F
Humidity 97%
Rainfall 0.00 in
Snow Depth Not available.
UV 0 out of 12
Pollen Not available.
Air Quality Not available.
Flu Activity Not available.
METAR CYYG 280900Z 29006KT 15SM FEW030 16/14 A2988 RMK SC1 SC TR SLP119 DENSITY ALT 300FT
Pressure 29.88 in
Visibility 15.0 miles
Clouds Few 3000 ft
Dew Point 57 °F
Humidity 97%
Rainfall 0.00 in
Snow Depth Not available.
UV 0 out of 12
Pollen Not available.
Air Quality Not available.
Flu Activity Not available.
METAR CYYG 280900Z 29006KT 15SM FEW030 16/14 A2988 RMK SC1 SC TR SLP119 DENSITY ALT 300FT

10-Day Weather Forecast

×

Almanac

Astronomy

Aug. 28, 2015 Rise Set
Actual Time
Civil Twilight
Nautical Twilight
Astronomical Twilight
Moon
Length of Visible Light
Length of Day
Tomorrow will be .
, % of the Moon is Illuminated

Today's Extremes

Country Highs Country Lows

Community

WunderPhotos

Upload Photos

1,850,352 photos uploaded!

WunderBlogs® & News

Nearby

Air Quality

  Air Quality AQ Index Pollutant
Not available.

Snow Depth

Station Depth Elevation

Earthquake Activity

City Distance Mag. Time & Date
Minimum magnitude displayed is 2.5.

Coastal Water Temperatures

Place Temperature

Stations

Nearby Weather Stations

Station Location Temp. Windchill Dew Point Humidity Wind Precip. Elev Updated Type